Time;durP1;ratioP1;P1;durP2;ratioP2;P2;SDS_P1;SDS_P2;PMS_P1;PMS_P2;Temp;Humidity;BMP_temperature;BMP_pressure;BME280_temperature;BME280_humidity;BME280_pressure;Samples;Min_cycle;Max_cycle;Signal;HPM_P1;HPM_P2
2022/01/14 00:00:30;;;;;;;26.48;20.25;;;9.40;99.90;;;;;;5054776;28;20238;-66
2022/01/14 00:02:57;;;;;;;27.30;19.92;;;9.40;99.90;;;;;;5063957;28;20242;-64
2022/01/14 00:05:25;;;;;;;29.23;21.13;;;9.40;99.90;;;;;;5054512;28;20221;-64
2022/01/14 00:07:52;;;;;;;33.40;25.00;;;9.40;99.90;;;;;;5054789;28;20235;-65
2022/01/14 00:10:19;;;;;;;31.67;22.10;;;9.30;99.90;;;;;;5054776;28;20236;-65
2022/01/14 00:12:53;;;;;;;33.30;22.27;;;9.30;99.90;;;;;;5054328;28;21013;-65
2022/01/14 00:15:26;;;;;;;34.05;24.48;;;9.30;99.90;;;;;;5054750;28;20760;-65
2022/01/14 00:17:54;;;;;;;26.70;19.30;;;9.20;99.90;;;;;;5054727;28;20922;-63
2022/01/14 00:20:21;;;;;;;33.05;23.15;;;9.20;99.90;;;;;;5054510;28;20221;-64
2022/01/14 00:22:49;;;;;;;31.75;19.67;;;9.30;99.90;;;;;;5054444;28;20228;-65
2022/01/14 00:33:30;;;;;;;24.13;18.60;;;9.10;99.90;;;;;;5048337;28;20243;-65
2022/01/14 00:36:00;;;;;;;31.25;20.83;;;9.10;99.90;;;;;;5054030;28;20229;-65
2022/01/14 00:38:28;;;;;;;30.33;22.77;;;9.10;99.90;;;;;;5054277;28;20301;-65
2022/01/14 00:40:55;;;;;;;27.45;21.02;;;9.10;99.90;;;;;;5053799;28;20242;-65
2022/01/14 00:43:22;;;;;;;30.95;20.77;;;9.10;99.90;;;;;;5054263;28;20222;-65
2022/01/14 00:45:51;;;;;;;30.52;21.17;;;9.10;99.90;;;;;;5053360;28;20230;-65
2022/01/14 00:48:19;;;;;;;28.80;19.65;;;9.10;99.90;;;;;;5053494;28;20236;-65
2022/01/14 00:50:46;;;;;;;30.85;21.40;;;9.00;99.90;;;;;;5053652;28;20575;-65
2022/01/14 00:53:13;;;;;;;39.70;23.83;;;9.00;99.90;;;;;;5053883;28;20222;-65
2022/01/14 00:55:48;;;;;;;25.23;19.50;;;9.00;99.90;;;;;;5053678;28;20226;-65
2022/01/14 01:01:02;;;;;;;25.05;18.63;;;9.10;99.90;;;;;;5053316;28;20373;-65
2022/01/14 01:03:29;;;;;;;32.25;20.77;;;9.10;99.90;;;;;;5053930;28;20221;-65
2022/01/14 01:05:56;;;;;;;28.27;20.48;;;9.10;99.90;;;;;;5053275;28;20231;-65
2022/01/14 01:08:26;;;;;;;27.98;19.58;;;9.00;99.90;;;;;;5053679;28;20696;-65
2022/01/14 01:10:54;;;;;;;27.27;17.92;;;9.00;99.90;;;;;;5053219;28;20233;-65
2022/01/14 01:13:24;;;;;;;28.42;21.17;;;9.10;99.90;;;;;;5053610;28;20239;-65
2022/01/14 01:15:53;;;;;;;27.38;21.08;;;9.10;99.90;;;;;;5053138;28;20229;-65
2022/01/14 01:18:21;;;;;;;27.00;19.30;;;9.00;99.90;;;;;;5053792;28;20226;-65
2022/01/14 01:20:49;;;;;;;27.98;18.77;;;9.10;99.90;;;;;;5052962;28;20230;-65
2022/01/14 01:23:16;;;;;;;24.90;18.48;;;9.10;99.90;;;;;;5053485;28;20683;-65
2022/01/14 01:25:48;;;;;;;26.70;18.88;;;9.10;99.90;;;;;;5044197;28;20566;-65
2022/01/14 01:28:16;;;;;;;26.98;19.88;;;9.10;99.90;;;;;;5048753;28;20231;-65
2022/01/14 01:33:33;;;;;;;28.02;20.58;;;9.10;99.90;;;;;;5026918;28;20263;-65
2022/01/14 01:36:00;;;;;;;24.77;19.58;;;9.10;99.90;;;;;;5052393;28;20224;-65
2022/01/14 01:38:27;;;;;;;29.38;19.13;;;9.10;99.90;;;;;;5053083;28;20223;-65
2022/01/14 01:40:54;;;;;;;26.65;20.23;;;9.20;99.90;;;;;;5052650;28;20235;-65
2022/01/14 01:43:25;;;;;;;26.52;20.17;;;9.20;99.90;;;;;;5053175;28;20573;-65
2022/01/14 01:45:54;;;;;;;28.85;19.85;;;9.20;99.90;;;;;;5052837;28;20293;-65
2022/01/14 01:48:21;;;;;;;31.90;19.63;;;9.20;99.90;;;;;;5052946;28;20674;-65
2022/01/14 01:50:48;;;;;;;31.05;20.98;;;9.20;99.90;;;;;;5052566;28;20251;-64
2022/01/14 01:53:15;;;;;;;26.90;20.83;;;9.20;99.90;;;;;;5052941;28;20226;-65
2022/01/14 01:55:42;;;;;;;26.40;20.00;;;9.20;99.90;;;;;;5052902;28;20573;-65
2022/01/14 01:58:08;;;;;;;32.08;19.73;;;9.20;99.90;;;;;;5052289;28;20213;-65
2022/01/14 02:00:37;;;;;;;27.88;18.90;;;9.20;99.90;;;;;;5052624;28;20235;-65
2022/01/14 02:03:04;;;;;;;28.88;19.48;;;9.30;99.90;;;;;;5052158;28;20222;-65
2022/01/14 02:05:32;;;;;;;32.30;19.42;;;9.30;99.90;;;;;;5053030;28;20225;-65
2022/01/14 02:07:58;;;;;;;44.40;30.67;;;9.30;99.90;;;;;;5039223;28;20244;-65
2022/01/14 02:10:26;;;;;;;40.42;22.65;;;9.30;99.90;;;;;;5052721;28;20315;-65
2022/01/14 02:12:54;;;;;;;30.58;20.08;;;9.30;99.90;;;;;;5052336;28;20226;-65
2022/01/14 02:15:30;;;;;;;24.60;18.05;;;9.30;99.90;;;;;;5052511;28;20226;-65
2022/01/14 02:18:27;;;;;;;30.85;19.45;;;9.30;99.90;;;;;;5052298;28;20229;-65
2022/01/14 02:23:45;;;;;;;41.47;27.23;;;9.30;99.90;;;;;;5052422;28;20683;-65
2022/01/14 02:26:12;;;;;;;37.28;20.92;;;9.30;99.90;;;;;;5035057;28;20973;-65
2022/01/14 02:28:40;;;;;;;31.33;19.83;;;9.30;99.90;;;;;;5047562;28;20219;-65
2022/01/14 02:31:07;;;;;;;29.17;18.95;;;9.40;99.90;;;;;;5051996;28;20667;-65
2022/01/14 02:33:34;;;;;;;24.00;19.63;;;9.40;99.90;;;;;;5046444;28;20231;-65
2022/01/14 02:36:03;;;;;;;30.27;20.42;;;9.30;99.90;;;;;;5052162;28;20236;-65
2022/01/14 02:38:31;;;;;;;28.17;18.95;;;9.30;99.90;;;;;;5052280;28;20225;-65
2022/01/14 02:40:58;;;;;;;25.15;19.10;;;9.30;99.90;;;;;;5052054;28;20231;-64
2022/01/14 02:43:26;;;;;;;30.63;21.50;;;9.30;99.90;;;;;;5052328;28;20229;-64
2022/01/14 02:45:55;;;;;;;30.60;21.67;;;9.30;99.90;;;;;;5051930;28;20264;-64
2022/01/14 02:48:25;;;;;;;30.23;21.30;;;9.30;99.90;;;;;;5052442;28;20610;-64
2022/01/14 02:50:59;;;;;;;33.22;23.35;;;9.30;99.90;;;;;;5051947;28;20610;-64
2022/01/14 02:53:40;;;;;;;31.63;20.50;;;9.20;99.90;;;;;;5052097;28;20229;-64
2022/01/14 02:56:09;;;;;;;28.48;20.42;;;9.30;99.90;;;;;;5051718;28;20226;-64
2022/01/14 02:58:38;;;;;;;25.30;20.13;;;9.30;99.90;;;;;;5051526;28;20232;-64
2022/01/14 03:01:08;;;;;;;28.80;19.45;;;9.20;99.90;;;;;;5051712;28;20688;-64
2022/01/14 03:03:35;;;;;;;27.05;20.40;;;9.20;99.90;;;;;;5056044;28;20223;-64
2022/01/14 03:06:03;;;;;;;30.05;21.83;;;9.20;99.90;;;;;;5051655;28;20292;-65
2022/01/14 03:08:33;;;;;;;32.90;21.55;;;9.20;99.90;;;;;;5052187;28;20222;-64
2022/01/14 03:11:01;;;;;;;38.10;23.45;;;9.20;99.90;;;;;;5053967;28;20240;-64
2022/01/14 03:13:29;;;;;;;37.20;22.25;;;9.20;99.90;;;;;;5055742;28;20228;-64
2022/01/14 03:15:55;;;;;;;29.52;21.00;;;9.20;99.90;;;;;;5055622;28;20226;-65
2022/01/14 03:18:23;;;;;;;35.72;22.20;;;9.20;99.90;;;;;;5055927;28;20220;-64
2022/01/14 03:21:00;;;;;;;28.65;21.58;;;9.30;99.90;;;;;;5055688;28;20236;-64
2022/01/14 03:23:26;;;;;;;36.83;23.45;;;9.20;99.90;;;;;;5055906;28;20221;-64
2022/01/14 03:25:56;;;;;;;34.15;23.38;;;9.20;99.90;;;;;;5055288;28;20221;-64
2022/01/14 03:28:24;;;;;;;34.05;23.52;;;9.20;99.90;;;;;;5050580;28;20311;-64
2022/01/14 03:30:53;;;;;;;39.40;22.48;;;9.20;99.90;;;;;;5055342;28;20583;-64
2022/01/14 03:33:20;;;;;;;33.05;22.15;;;9.10;99.90;;;;;;5049536;28;20238;-65
2022/01/14 03:35:48;;;;;;;29.17;21.67;;;9.10;99.90;;;;;;5055111;28;20236;-65
2022/01/14 03:38:17;;;;;;;34.30;22.38;;;9.10;99.90;;;;;;5055344;28;20307;-64
2022/01/14 03:40:46;;;;;;;32.03;22.42;;;9.10;99.90;;;;;;5055142;28;20236;-66
2022/01/14 03:43:14;;;;;;;36.35;23.33;;;9.10;99.90;;;;;;5055465;28;20235;-66
2022/01/14 03:45:41;;;;;;;39.30;22.52;;;9.10;99.90;;;;;;5054967;28;20221;-65
2022/01/14 03:48:12;;;;;;;33.10;24.25;;;9.00;99.90;;;;;;5055430;28;20783;-65
2022/01/14 03:50:39;;;;;;;34.03;23.88;;;9.00;99.90;;;;;;5054771;28;20225;-65
2022/01/14 03:53:06;;;;;;;30.92;23.10;;;9.00;99.90;;;;;;5055094;28;20231;-65
2022/01/14 03:55:33;;;;;;;33.05;21.38;;;9.00;99.90;;;;;;5055197;28;20238;-65
2022/01/14 03:58:02;;;;;;;31.67;21.30;;;9.00;99.90;;;;;;5054701;28;21272;-65
2022/01/14 04:00:31;;;;;;;34.33;25.10;;;9.00;99.90;;;;;;5055082;28;20309;-64
2022/01/14 04:02:57;;;;;;;34.22;23.35;;;9.00;99.90;;;;;;5044895;28;20233;-65
2022/01/14 04:05:24;;;;;;;31.30;23.50;;;9.00;99.90;;;;;;5054896;28;20238;-65
2022/01/14 04:07:51;;;;;;;33.17;21.25;;;9.00;99.90;;;;;;5054300;28;20231;-65
2022/01/14 04:10:18;;;;;;;31.30;20.08;;;9.00;99.90;;;;;;5054995;28;20222;-65
2022/01/14 04:12:50;;;;;;;29.05;20.85;;;9.00;99.90;;;;;;5054386;28;20323;-65
2022/01/14 04:18:04;;;;;;;29.83;21.75;;;9.00;99.90;;;;;;5054570;28;20225;-64
2022/01/14 04:20:32;;;;;;;32.85;21.13;;;9.00;99.90;;;;;;5054495;28;20680;-65
2022/01/14 04:22:59;;;;;;;28.10;21.10;;;9.00;99.90;;;;;;5054025;28;20226;-65
2022/01/14 04:25:26;;;;;;;35.40;22.88;;;9.00;99.90;;;;;;5054259;28;20709;-65
2022/01/14 04:27:53;;;;;;;30.65;22.05;;;9.00;99.90;;;;;;5049413;28;20254;-65
2022/01/14 04:30:20;;;;;;;27.15;19.13;;;9.00;99.90;;;;;;5054060;28;20225;-65
2022/01/14 04:32:47;;;;;;;27.60;20.35;;;9.00;99.90;;;;;;5052070;28;20233;-65
2022/01/14 04:35:16;;;;;;;27.55;18.20;;;9.00;99.90;;;;;;5050418;28;20702;-65
2022/01/14 04:37:43;;;;;;;26.27;19.10;;;9.00;99.90;;;;;;5053820;28;20228;-65
2022/01/14 04:40:12;;;;;;;24.48;19.55;;;8.90;99.90;;;;;;5054334;28;20230;-65
2022/01/14 04:42:41;;;;;;;24.58;17.02;;;9.00;99.90;;;;;;5053783;28;20244;-65
2022/01/14 04:45:10;;;;;;;26.73;17.85;;;9.00;99.90;;;;;;5053980;28;20322;-65
2022/01/14 04:47:47;;;;;;;31.58;19.40;;;9.00;99.90;;;;;;5054334;28;20307;-65
2022/01/14 04:50:17;;;;;;;26.25;19.13;;;8.90;99.90;;;;;;5053872;28;20318;-65
2022/01/14 04:52:46;;;;;;;27.63;19.67;;;8.90;99.90;;;;;;5053908;28;20231;-65
2022/01/14 04:55:14;;;;;;;27.27;18.65;;;8.90;99.90;;;;;;5053577;28;20226;-63
2022/01/14 04:57:42;;;;;;;26.02;18.40;;;8.90;99.90;;;;;;5053549;28;20217;-64
2022/01/14 05:00:12;;;;;;;27.27;19.20;;;8.90;99.90;;;;;;5053509;28;20583;-64
2022/01/14 05:02:38;;;;;;;29.10;21.02;;;8.80;99.90;;;;;;5053283;28;20676;-65
2022/01/14 05:05:06;;;;;;;36.20;24.30;;;8.80;99.90;;;;;;5052196;28;20238;-65
2022/01/14 05:07:34;;;;;;;29.05;20.98;;;8.80;99.90;;;;;;5052133;28;20227;-65
2022/01/14 05:10:18;;;;;;;26.45;19.83;;;8.90;99.90;;;;;;5052393;28;20882;-65
2022/01/14 05:12:45;;;;;;;29.20;19.35;;;8.90;99.90;;;;;;5053778;28;20225;-65
2022/01/14 05:15:13;;;;;;;27.13;19.77;;;8.90;99.90;;;;;;5053407;28;20231;-66
2022/01/14 05:17:40;;;;;;;29.25;20.92;;;8.90;99.90;;;;;;5053891;28;20247;-64
2022/01/14 05:20:09;;;;;;;28.55;19.98;;;8.90;99.90;;;;;;5053189;28;20235;-64
2022/01/14 05:22:37;;;;;;;27.25;18.50;;;8.80;99.90;;;;;;5053657;28;20228;-65
2022/01/14 05:25:05;;;;;;;25.52;18.30;;;8.80;99.90;;;;;;5053232;28;20312;-65
2022/01/14 05:27:32;;;;;;;24.75;19.25;;;8.90;99.90;;;;;;5053654;28;20304;-65
2022/01/14 05:29:59;;;;;;;27.10;19.38;;;8.80;99.90;;;;;;5053091;28;20696;-66
2022/01/14 05:32:27;;;;;;;28.88;19.58;;;8.90;99.90;;;;;;5052828;28;20571;-65
2022/01/14 05:34:54;;;;;;;21.65;18.38;;;8.90;99.90;;;;;;5052954;28;20232;-64
2022/01/14 05:37:21;;;;;;;24.95;20.33;;;8.80;99.90;;;;;;5053359;28;20232;-64
2022/01/14 05:39:49;;;;;;;23.77;18.33;;;8.90;99.90;;;;;;5053232;28;20732;-65
2022/01/14 05:42:16;;;;;;;20.67;17.60;;;8.80;99.90;;;;;;5052856;28;20223;-65
2022/01/14 05:44:43;;;;;;;27.45;18.10;;;8.90;99.90;;;;;;5053336;28;20231;-65
2022/01/14 05:47:10;;;;;;;23.40;17.85;;;8.90;99.90;;;;;;5052824;28;20239;-64
2022/01/14 05:49:37;;;;;;;26.55;18.70;;;8.90;99.90;;;;;;5053272;28;20222;-65
2022/01/14 05:52:05;;;;;;;26.92;19.55;;;8.90;99.90;;;;;;5052616;28;20233;-65
2022/01/14 05:54:31;;;;;;;24.45;17.90;;;8.90;99.90;;;;;;5053147;28;20223;-65
2022/01/14 05:57:00;;;;;;;27.45;21.00;;;8.90;99.90;;;;;;5052610;28;20227;-66
2022/01/14 05:59:26;;;;;;;30.23;19.13;;;8.90;99.90;;;;;;5053075;28;20218;-64
2022/01/14 06:01:53;;;;;;;23.27;18.17;;;8.90;99.90;;;;;;5052873;28;20244;-66
2022/01/14 06:04:20;;;;;;;23.85;18.20;;;8.80;99.90;;;;;;5052916;28;20894;-65
2022/01/14 06:06:47;;;;;;;27.63;20.27;;;8.80;99.90;;;;;;5052960;28;20229;-66
2022/01/14 06:09:14;;;;;;;27.85;20.40;;;8.80;99.90;;;;;;5052422;28;20236;-65
2022/01/14 06:11:40;;;;;;;23.45;18.35;;;8.80;99.90;;;;;;5052840;28;20232;-65
2022/01/14 06:14:08;;;;;;;31.48;21.17;;;8.80;99.90;;;;;;5052361;28;20254;-66
2022/01/14 06:16:35;;;;;;;24.67;19.02;;;8.80;99.90;;;;;;5052851;28;20221;-65
2022/01/14 06:19:02;;;;;;;31.48;21.38;;;8.90;99.90;;;;;;5052418;28;20240;-64
2022/01/14 06:21:29;;;;;;;30.08;21.65;;;8.80;99.90;;;;;;5052695;28;20297;-65
2022/01/14 06:23:56;;;;;;;35.60;22.88;;;8.90;99.90;;;;;;5052624;28;20704;-65
2022/01/14 06:26:24;;;;;;;31.63;23.15;;;8.90;99.90;;;;;;5052499;28;20218;-65
2022/01/14 06:28:50;;;;;;;36.30;23.30;;;8.90;99.90;;;;;;5052659;28;20238;-65
2022/01/14 06:31:19;;;;;;;34.97;25.83;;;8.90;99.90;;;;;;5052440;28;20230;-65
2022/01/14 06:33:46;;;;;;;38.70;23.80;;;8.90;99.90;;;;;;5052576;28;20236;-65
2022/01/14 06:36:14;;;;;;;38.25;25.25;;;8.80;99.90;;;;;;5052153;28;20271;-64
2022/01/14 06:38:41;;;;;;;38.85;23.52;;;8.90;99.90;;;;;;5052666;28;20222;-65
2022/01/14 06:41:08;;;;;;;42.45;25.23;;;8.80;99.90;;;;;;5051980;28;20694;-65
2022/01/14 06:43:35;;;;;;;40.15;24.80;;;8.80;99.90;;;;;;5052491;28;20221;-65
2022/01/14 06:46:02;;;;;;;43.78;27.17;;;8.80;99.90;;;;;;5055122;28;20303;-65
2022/01/14 06:48:30;;;;;;;46.20;26.52;;;8.80;99.90;;;;;;5056726;28;20227;-65
2022/01/14 06:50:58;;;;;;;44.58;27.02;;;8.70;99.90;;;;;;5056333;28;20712;-65
2022/01/14 06:53:24;;;;;;;39.17;24.35;;;8.80;99.90;;;;;;5056206;28;20223;-66
2022/01/14 06:55:51;;;;;;;39.50;25.52;;;8.80;99.90;;;;;;5056379;28;20232;-66
2022/01/14 06:58:18;;;;;;;39.20;24.95;;;8.80;99.90;;;;;;5056048;28;20219;-66
2022/01/14 07:00:45;;;;;;;41.20;24.52;;;8.80;99.90;;;;;;5056369;28;20715;-65
2022/01/14 07:03:12;;;;;;;40.42;24.27;;;8.80;99.90;;;;;;5055974;28;20238;-65
2022/01/14 07:05:40;;;;;;;40.25;23.35;;;8.80;99.90;;;;;;5056292;28;20223;-65
2022/01/14 07:08:07;;;;;;;42.42;24.85;;;8.80;99.90;;;;;;5055837;28;20240;-66
2022/01/14 07:10:36;;;;;;;36.97;25.15;;;8.80;99.90;;;;;;5056035;28;20232;-64
2022/01/14 07:13:04;;;;;;;38.25;25.17;;;8.80;99.90;;;;;;5055703;28;20231;-64
2022/01/14 07:15:32;;;;;;;39.90;25.25;;;8.80;99.90;;;;;;5056140;28;20567;-66
2022/01/14 07:17:59;;;;;;;40.00;24.30;;;8.80;99.90;;;;;;5056213;28;20230;-65
2022/01/14 07:20:26;;;;;;;34.17;22.08;;;8.80;99.90;;;;;;5055505;28;20218;-65
2022/01/14 07:22:54;;;;;;;35.38;22.67;;;8.80;99.90;;;;;;5056090;28;20223;-65
2022/01/14 07:25:21;;;;;;;33.10;23.73;;;8.80;99.90;;;;;;5055522;28;20250;-65
2022/01/14 07:27:48;;;;;;;31.63;21.17;;;8.80;99.90;;;;;;5055994;28;20669;-65
2022/01/14 07:30:16;;;;;;;35.00;22.08;;;8.80;99.90;;;;;;5055481;28;20251;-65
2022/01/14 07:32:44;;;;;;;32.70;21.13;;;8.80;99.90;;;;;;5055945;28;20227;-65
2022/01/14 07:35:11;;;;;;;32.22;20.85;;;8.80;99.90;;;;;;5055188;28;20236;-65
2022/01/14 07:37:38;;;;;;;29.27;21.08;;;8.80;99.90;;;;;;5055677;28;20241;-65
2022/01/14 07:40:07;;;;;;;30.92;20.30;;;8.80;99.90;;;;;;5055124;28;20245;-65
2022/01/14 07:42:34;;;;;;;26.42;19.95;;;8.80;99.90;;;;;;5055720;28;20237;-65
2022/01/14 07:45:01;;;;;;;27.65;17.90;;;8.80;99.90;;;;;;5055614;28;20699;-66
2022/01/14 07:47:28;;;;;;;30.50;20.77;;;8.80;99.90;;;;;;5055228;28;20645;-65
2022/01/14 07:49:55;;;;;;;32.58;20.35;;;8.80;99.90;;;;;;5055489;28;20231;-66
2022/01/14 07:52:22;;;;;;;30.92;21.95;;;8.80;99.90;;;;;;5054943;28;20238;-66
2022/01/14 07:54:49;;;;;;;29.75;19.00;;;8.80;99.90;;;;;;5055000;28;20230;-65
2022/01/14 07:57:18;;;;;;;30.48;19.58;;;8.80;99.90;;;;;;5054479;28;20234;-65
2022/01/14 07:59:45;;;;;;;27.35;19.63;;;8.80;99.90;;;;;;5055276;28;20678;-65
2022/01/14 08:02:13;;;;;;;31.00;19.67;;;8.80;99.90;;;;;;5054788;28;20566;-65
2022/01/14 08:04:41;;;;;;;29.75;21.52;;;8.80;99.90;;;;;;5055475;28;20591;-65
2022/01/14 08:07:11;;;;;;;30.05;19.92;;;8.80;99.90;;;;;;5054718;28;20247;-65
2022/01/14 08:09:39;;;;;;;25.45;17.60;;;8.80;99.90;;;;;;5055206;28;20559;-66
2022/01/14 08:12:07;;;;;;;27.02;18.80;;;8.80;99.90;;;;;;5054783;28;20242;-65
2022/01/14 08:14:36;;;;;;;27.70;17.63;;;8.80;99.90;;;;;;5055031;28;20228;-65
2022/01/14 08:17:03;;;;;;;26.35;17.95;;;8.80;99.90;;;;;;5054872;28;20226;-64
2022/01/14 08:19:33;;;;;;;26.42;19.35;;;8.70;99.90;;;;;;5054516;28;20334;-66
2022/01/14 08:22:01;;;;;;;27.92;17.73;;;8.80;99.90;;;;;;5054737;28;20251;-64
2022/01/14 08:24:29;;;;;;;28.88;18.70;;;8.80;99.90;;;;;;5054295;28;20221;-64
2022/01/14 08:26:56;;;;;;;28.15;17.98;;;8.80;99.90;;;;;;5055121;28;20295;-65
2022/01/14 08:29:24;;;;;;;31.77;19.75;;;8.80;99.90;;;;;;5054175;28;20265;-65
2022/01/14 08:31:52;;;;;;;30.05;21.25;;;8.80;99.90;;;;;;5054668;28;20238;-65
2022/01/14 08:34:19;;;;;;;30.35;18.88;;;8.80;99.90;;;;;;5054311;28;20235;-65
2022/01/14 08:36:47;;;;;;;26.52;19.30;;;8.80;99.90;;;;;;5054366;28;20228;-65
2022/01/14 08:39:14;;;;;;;31.33;20.00;;;8.80;99.90;;;;;;5054083;28;20546;-66
2022/01/14 08:41:41;;;;;;;26.88;18.40;;;8.80;99.90;;;;;;5054498;28;20236;-65
2022/01/14 08:44:08;;;;;;;24.42;17.85;;;8.80;99.90;;;;;;5054201;28;20303;-65
2022/01/14 08:46:35;;;;;;;25.52;19.83;;;8.80;99.90;;;;;;5054407;28;20226;-65
2022/01/14 08:49:04;;;;;;;31.65;18.88;;;8.80;99.90;;;;;;5054451;28;20229;-65
2022/01/14 08:51:31;;;;;;;27.00;18.13;;;8.90;99.90;;;;;;5053769;28;20243;-65
2022/01/14 08:54:02;;;;;;;23.67;17.08;;;8.80;99.90;;;;;;5054232;28;20228;-65
2022/01/14 08:56:31;;;;;;;31.25;19.75;;;8.80;99.90;;;;;;5053855;28;20568;-66
2022/01/14 08:58:58;;;;;;;32.63;19.17;;;8.80;99.90;;;;;;5054079;28;20283;-66
2022/01/14 09:01:24;;;;;;;30.23;19.35;;;8.80;99.90;;;;;;5053580;28;20242;-66
2022/01/14 09:03:51;;;;;;;33.63;20.58;;;8.80;99.90;;;;;;5053900;28;20232;-64
2022/01/14 09:06:20;;;;;;;38.67;22.70;;;8.80;99.90;;;;;;5053513;28;20575;-65
2022/01/14 09:08:47;;;;;;;26.30;18.67;;;8.90;99.90;;;;;;5052960;28;20245;-65
2022/01/14 09:11:14;;;;;;;29.77;18.40;;;8.80;99.90;;;;;;5053470;28;20718;-65
2022/01/14 09:13:40;;;;;;;25.83;18.70;;;8.80;99.90;;;;;;5054038;28;20226;-66
2022/01/14 09:16:07;;;;;;;27.08;18.92;;;8.80;99.90;;;;;;5053613;28;20732;-65
2022/01/14 09:18:34;;;;;;;33.50;20.40;;;8.80;99.90;;;;;;5053380;28;20234;-65
2022/01/14 09:21:01;;;;;;;29.67;18.77;;;8.70;99.90;;;;;;5053428;28;20242;-65
2022/01/14 09:23:29;;;;;;;48.13;32.58;;;8.70;99.90;;;;;;5053294;28;20225;-66
2022/01/14 09:25:57;;;;;;;37.40;25.73;;;8.80;99.90;;;;;;5053679;28;20218;-65
2022/01/14 09:28:24;;;;;;;39.40;23.45;;;8.80;99.90;;;;;;5053127;28;20711;-65
2022/01/14 09:30:51;;;;;;;35.33;22.55;;;8.80;99.90;;;;;;5053570;28;20234;-65
2022/01/14 09:33:18;;;;;;;31.73;18.77;;;8.80;99.90;;;;;;5053108;28;20231;-65
2022/01/14 09:35:46;;;;;;;24.85;17.20;;;8.90;99.90;;;;;;5053436;28;20235;-65
2022/01/14 09:38:13;;;;;;;31.80;19.00;;;8.80;99.90;;;;;;5052980;28;20254;-65
2022/01/14 09:40:44;;;;;;;33.70;20.45;;;8.80;99.90;;;;;;5053395;28;20602;-65
2022/01/14 09:43:14;;;;;;;33.38;18.60;;;8.80;99.90;;;;;;5053286;28;20231;-66
2022/01/14 09:45:41;;;;;;;34.58;21.77;;;8.80;99.90;;;;;;5052966;28;20219;-65
2022/01/14 09:48:09;;;;;;;34.65;17.55;;;8.80;99.90;;;;;;5053205;28;20227;-65
2022/01/14 09:50:36;;;;;;;26.40;18.73;;;8.80;99.90;;;;;;5052691;28;20233;-64
2022/01/14 09:53:03;;;;;;;35.38;19.48;;;8.80;99.90;;;;;;5053138;28;20232;-65
2022/01/14 09:55:30;;;;;;;35.75;19.17;;;8.80;99.90;;;;;;5052790;28;20221;-66
2022/01/14 09:58:01;;;;;;;28.27;21.45;;;8.80;99.90;;;;;;5053140;28;20222;-64
2022/01/14 10:00:28;;;;;;;21.15;16.15;;;8.90;99.90;;;;;;5052706;28;20287;-64
2022/01/14 10:02:54;;;;;;;43.40;23.83;;;9.00;99.90;;;;;;5053134;28;20232;-64
2022/01/14 10:05:37;;;;;;;25.30;18.88;;;9.00;99.90;;;;;;5052516;28;20302;-64
2022/01/14 10:08:14;;;;;;;28.15;18.20;;;9.00;99.90;;;;;;5052876;28;20230;-65
2022/01/14 10:10:46;;;;;;;19.70;15.20;;;9.00;99.90;;;;;;5052644;28;20304;-64
2022/01/14 10:13:17;;;;;;;26.70;15.32;;;9.10;99.90;;;;;;5052909;28;20573;-65
2022/01/14 10:15:45;;;;;;;19.33;14.55;;;9.10;99.90;;;;;;5052383;28;20587;-65
2022/01/14 10:18:15;;;;;;;16.83;13.55;;;9.10;99.90;;;;;;5052595;28;20247;-65
2022/01/14 10:20:42;;;;;;;16.17;14.43;;;9.10;99.90;;;;;;5052434;28;20244;-65
2022/01/14 10:23:09;;;;;;;23.90;14.75;;;9.10;99.90;;;;;;5052761;28;20241;-65
2022/01/14 10:25:36;;;;;;;25.05;15.40;;;9.10;99.90;;;;;;5052247;28;20232;-66
2022/01/14 10:28:02;;;;;;;22.90;17.00;;;9.20;99.90;;;;;;5052895;28;20349;-65
2022/01/14 10:30:33;;;;;;;27.10;16.75;;;9.20;99.90;;;;;;5052508;28;20338;-66
2022/01/14 10:33:03;;;;;;;20.00;15.98;;;9.10;99.90;;;;;;5052658;28;20316;-65
2022/01/14 10:35:31;;;;;;;22.05;13.90;;;9.20;99.90;;;;;;5052399;28;20623;-66
2022/01/14 10:38:01;;;;;;;23.65;15.93;;;9.20;99.90;;;;;;5052418;28;20229;-66
2022/01/14 10:40:30;;;;;;;19.25;13.80;;;9.20;99.90;;;;;;5052012;28;20226;-65
2022/01/14 10:43:02;;;;;;;15.95;11.25;;;9.20;99.90;;;;;;5052772;28;20282;-65
2022/01/14 10:45:29;;;;;;;15.63;11.70;;;9.20;99.90;;;;;;5052105;28;20226;-65
2022/01/14 10:48:00;;;;;;;20.65;11.70;;;9.20;99.90;;;;;;5052564;28;20240;-65
2022/01/14 10:50:30;;;;;;;15.65;11.02;;;9.30;99.90;;;;;;5052089;28;20256;-65
2022/01/14 10:52:57;;;;;;;18.77;13.25;;;9.20;99.90;;;;;;5052356;28;20235;-65
2022/01/14 10:55:33;;;;;;;23.45;13.57;;;9.30;99.90;;;;;;5052105;28;20246;-65
2022/01/14 10:58:02;;;;;;;23.08;13.75;;;9.30;99.90;;;;;;5052459;28;20227;-66
2022/01/14 11:00:29;;;;;;;19.52;11.18;;;9.40;99.90;;;;;;5052179;28;20264;-65
2022/01/14 11:02:58;;;;;;;26.35;13.30;;;9.30;99.90;;;;;;5052341;28;20230;-65
2022/01/14 11:05:25;;;;;;;15.88;12.77;;;9.30;99.90;;;;;;5051940;28;20302;-65
2022/01/14 11:07:53;;;;;;;22.95;15.40;;;9.30;99.90;;;;;;5052290;28;20221;-64
2022/01/14 11:10:25;;;;;;;20.90;15.60;;;9.30;99.90;;;;;;5052188;28;20240;-65
2022/01/14 11:12:54;;;;;;;21.08;13.70;;;9.40;99.90;;;;;;5052112;28;21228;-65
2022/01/14 11:15:22;;;;;;;20.77;11.32;;;9.30;99.90;;;;;;5052246;28;20827;-65
2022/01/14 11:17:50;;;;;;;22.70;13.90;;;9.30;99.90;;;;;;5051637;28;20235;-66
2022/01/14 11:20:24;;;;;;;14.57;12.80;;;9.40;99.90;;;;;;5052166;28;20627;-65
2022/01/14 11:25:43;;;;;;;20.83;12.40;;;9.40;99.90;;;;;;5051792;28;20687;-65
2022/01/14 11:28:12;;;;;;;23.23;15.35;;;9.50;99.90;;;;;;5052104;28;20302;-65
2022/01/14 11:30:41;;;;;;;28.23;12.15;;;9.50;99.90;;;;;;5051851;28;20314;-65
2022/01/14 11:33:10;;;;;;;19.20;12.60;;;9.50;99.90;;;;;;5055653;28;20539;-65
2022/01/14 11:35:39;;;;;;;18.40;11.30;;;9.50;99.90;;;;;;5052904;28;20228;-65
2022/01/14 11:38:33;;;;;;;18.30;10.77;;;9.50;99.90;;;;;;5049277;28;20247;-65
2022/01/14 11:41:00;;;;;;;15.55;9.43;;;9.60;99.90;;;;;;5042250;28;21242;-65
2022/01/14 11:43:46;;;;;;;18.48;12.90;;;9.60;99.90;;;;;;5038826;28;20226;-65
2022/01/14 11:46:16;;;;;;;18.42;11.43;;;9.70;99.90;;;;;;5041645;28;20261;-63
2022/01/14 11:48:48;;;;;;;13.27;10.13;;;9.70;99.90;;;;;;5041676;28;20330;-65
2022/01/14 11:51:18;;;;;;;17.95;12.77;;;9.60;99.90;;;;;;5044252;28;20234;-65
2022/01/14 11:53:50;;;;;;;17.77;11.85;;;9.70;99.90;;;;;;5041338;28;20235;-65
2022/01/14 11:56:50;;;;;;;13.60;10.85;;;9.70;99.90;;;;;;5041623;28;20232;-65
2022/01/14 11:59:54;;;;;;;24.52;14.50;;;9.70;99.90;;;;;;5033467;28;20230;-65
2022/01/14 12:02:41;;;;;;;12.55;9.85;;;9.70;99.90;;;;;;5040196;28;20234;-64
2022/01/14 12:05:25;;;;;;;16.30;11.38;;;9.70;99.90;;;;;;5038189;28;20283;-65
2022/01/14 12:08:24;;;;;;;17.95;10.60;;;9.70;99.90;;;;;;5040832;28;20226;-65
2022/01/14 12:10:57;;;;;;;15.48;9.93;;;9.70;99.90;;;;;;5038340;28;20222;-65
2022/01/14 12:13:29;;;;;;;18.75;9.77;;;9.70;99.90;;;;;;5037311;28;20225;-66
2022/01/14 12:16:02;;;;;;;9.18;8.15;;;9.70;99.90;;;;;;5046284;28;20230;-66
2022/01/14 12:19:23;;;;;;;16.77;7.68;;;9.80;99.90;;;;;;5042076;28;20312;-65
2022/01/14 12:21:58;;;;;;;12.35;7.88;;;9.80;99.90;;;;;;5053518;28;20227;-66
2022/01/14 12:24:40;;;;;;;14.52;8.45;;;9.80;99.90;;;;;;5052338;28;20223;-65
2022/01/14 12:27:28;;;;;;;14.98;10.02;;;9.70;99.90;;;;;;5040500;28;20242;-65
2022/01/14 12:30:07;;;;;;;14.65;9.32;;;9.70;99.90;;;;;;5052379;28;20221;-64
2022/01/14 12:32:37;;;;;;;12.18;8.10;;;9.70;99.90;;;;;;5050518;28;20242;-66
2022/01/14 12:35:13;;;;;;;12.45;8.57;;;9.70;99.90;;;;;;5042459;28;20246;-66
2022/01/14 12:37:43;;;;;;;12.38;9.05;;;9.70;99.90;;;;;;5043627;28;20230;-64
2022/01/14 12:40:14;;;;;;;13.38;7.97;;;9.70;99.90;;;;;;5053637;28;20226;-65
2022/01/14 12:42:47;;;;;;;11.60;8.27;;;9.70;99.90;;;;;;5053114;28;20242;-65
2022/01/14 12:45:27;;;;;;;13.70;8.48;;;9.80;99.90;;;;;;5053962;28;20226;-64
2022/01/14 12:48:19;;;;;;;12.20;8.38;;;9.80;99.90;;;;;;5049912;28;20604;-64
2022/01/14 12:50:46;;;;;;;11.93;8.30;;;9.70;99.90;;;;;;5052980;28;20499;-64
2022/01/14 12:53:16;;;;;;;17.25;11.15;;;9.70;99.90;;;;;;5048372;28;20235;-65
2022/01/14 12:55:45;;;;;;;11.07;8.75;;;9.70;99.90;;;;;;5052682;28;20223;-64
2022/01/14 12:58:12;;;;;;;14.75;11.00;;;9.80;99.90;;;;;;5052202;28;20606;-65
2022/01/14 13:00:39;;;;;;;22.77;16.23;;;9.80;99.90;;;;;;5050125;28;20230;-65
2022/01/14 13:03:12;;;;;;;16.85;12.75;;;9.70;99.90;;;;;;5052789;28;20225;-65
2022/01/14 13:05:39;;;;;;;11.30;9.25;;;9.70;99.90;;;;;;5052676;28;20231;-65
2022/01/14 13:08:06;;;;;;;12.65;9.43;;;9.70;99.90;;;;;;5052572;28;20228;-65
2022/01/14 13:10:35;;;;;;;14.55;9.20;;;9.70;99.90;;;;;;5052824;28;20633;-65